KPKD

Park Rapids Municipal-Konshok Field Airport

Park Rapids, Minnesota, USA
METAR KPKD 190653Z AUTO 18004KT 10SM CLR M04/M07 A2958 RMK AO2 SLP037 T10441072
Observed Flight Rules
Jan-19 @ 06:53 UTC (34 minutes ago) Visual Flight Rules
Wind Visibility Clouds
180° at 4 knots 10 miles
  • Clear skies
Temperatures Readings
Current -4°C / 25°F
Dewpoint -7°C / 19°F
Humidity 80%
Altimeter 29.58" Hg
Pressure 1003.7 hPa
Elevation 442
METAR KPKD 190653Z AUTO 18004KT 10SM CLR M04/M07 A2958 RMK AO2 SLP037 T10441072
Observed Flight Rules
Jan-19 @ 06:53 UTC
(34 minutes ago)
VFR
Wind Visibility
180° at 4 knots 10 miles
Clouds
  • Clear skies
Temperature Dewpoint
-4°C / 25°F -7°C / 19°F
Humidity Altimeter Pressure
80% 29.58" Hg 1003.7 hPa